Terminal Aerodrome Forecast
Issued by NWS Twin Cities, MN

Home | Current Version | Previous Version | Graphics & Text | Print | Product List | Glossary On
Versions: 1 2 3 4 5 6 7 8 9 10 11 12 13 14 15 16
072
FTUS43 KMPX 162341
TAFEAU
TAF
KEAU 162341Z 1700/1724 12007KT P6SM VCSH SCT035 OVC060
     FM170300 12008KT 2SM -TSRA BR SCT020 OVC040CB
      TEMPO 1703/1706 3/4SM TSRA BKN015CB
     FM170700 14006KT 4SM BR VCSH OVC005
     FM171500 22008KT 6SM BR VCSH OVC007
     FM171700 30010G17KT 2SM -DZ BR OVC007
     FM172200 31014G21KT P6SM OVC015=

USA.gov is the U.S. government's official web portal to all federal, state and local government web resources and services.